sensor_id;sensor_type;location;lat;lon;timestamp;P1;durP1;ratioP1;P2;durP2;ratioP2
36189;SDS011;22232;50.914;13.858;2023-04-24T00:01:41;8.85;;;5.88;;
36189;SDS011;22232;50.914;13.858;2023-04-24T00:04:09;8.93;;;6.20;;
36189;SDS011;22232;50.914;13.858;2023-04-24T00:06:38;10.23;;;7.00;;
36189;SDS011;22232;50.914;13.858;2023-04-24T00:09:05;10.00;;;6.72;;
36189;SDS011;22232;50.914;13.858;2023-04-24T00:11:33;10.20;;;6.95;;
36189;SDS011;22232;50.914;13.858;2023-04-24T00:14:00;9.82;;;6.88;;
36189;SDS011;22232;50.914;13.858;2023-04-24T00:16:28;11.73;;;6.75;;
36189;SDS011;22232;50.914;13.858;2023-04-24T00:18:56;9.70;;;6.55;;
36189;SDS011;22232;50.914;13.858;2023-04-24T00:21:23;10.57;;;6.88;;
36189;SDS011;22232;50.914;13.858;2023-04-24T00:23:52;11.27;;;7.03;;
36189;SDS011;22232;50.914;13.858;2023-04-24T00:26:20;10.73;;;6.70;;
36189;SDS011;22232;50.914;13.858;2023-04-24T00:28:48;10.15;;;6.28;;
36189;SDS011;22232;50.914;13.858;2023-04-24T00:31:15;8.65;;;6.13;;
36189;SDS011;22232;50.914;13.858;2023-04-24T00:33:43;9.20;;;6.70;;
36189;SDS011;22232;50.914;13.858;2023-04-24T00:36:10;8.73;;;6.05;;
36189;SDS011;22232;50.914;13.858;2023-04-24T00:38:38;7.93;;;5.80;;
36189;SDS011;22232;50.914;13.858;2023-04-24T00:41:05;8.30;;;5.90;;
36189;SDS011;22232;50.914;13.858;2023-04-24T00:43:34;8.23;;;5.32;;
36189;SDS011;22232;50.914;13.858;2023-04-24T00:46:02;7.70;;;5.40;;
36189;SDS011;22232;50.914;13.858;2023-04-24T00:48:29;9.20;;;5.78;;
36189;SDS011;22232;50.914;13.858;2023-04-24T00:50:58;8.77;;;6.05;;
36189;SDS011;22232;50.914;13.858;2023-04-24T00:53:26;9.02;;;5.65;;
36189;SDS011;22232;50.914;13.858;2023-04-24T00:55:53;6.95;;;5.25;;
36189;SDS011;22232;50.914;13.858;2023-04-24T00:58:22;10.20;;;6.25;;
36189;SDS011;22232;50.914;13.858;2023-04-24T01:00:50;10.18;;;6.72;;
36189;SDS011;22232;50.914;13.858;2023-04-24T01:03:20;9.68;;;6.60;;
36189;SDS011;22232;50.914;13.858;2023-04-24T01:05:49;9.88;;;6.38;;
36189;SDS011;22232;50.914;13.858;2023-04-24T01:08:18;10.00;;;6.10;;
36189;SDS011;22232;50.914;13.858;2023-04-24T01:10:47;9.48;;;6.05;;
36189;SDS011;22232;50.914;13.858;2023-04-24T01:13:18;9.43;;;6.20;;
36189;SDS011;22232;50.914;13.858;2023-04-24T01:15:47;9.45;;;6.05;;
36189;SDS011;22232;50.914;13.858;2023-04-24T01:18:14;8.25;;;5.72;;
36189;SDS011;22232;50.914;13.858;2023-04-24T01:20:42;8.35;;;6.57;;
36189;SDS011;22232;50.914;13.858;2023-04-24T01:23:12;11.70;;;6.43;;
36189;SDS011;22232;50.914;13.858;2023-04-24T01:25:39;9.23;;;6.38;;
36189;SDS011;22232;50.914;13.858;2023-04-24T01:28:07;11.80;;;7.40;;
36189;SDS011;22232;50.914;13.858;2023-04-24T01:30:35;6.43;;;5.45;;
36189;SDS011;22232;50.914;13.858;2023-04-24T01:33:03;9.02;;;6.05;;
36189;SDS011;22232;50.914;13.858;2023-04-24T01:35:31;7.05;;;5.10;;
36189;SDS011;22232;50.914;13.858;2023-04-24T01:37:59;5.75;;;3.78;;
36189;SDS011;22232;50.914;13.858;2023-04-24T01:40:26;6.55;;;3.95;;
36189;SDS011;22232;50.914;13.858;2023-04-24T01:42:57;6.28;;;3.72;;
36189;SDS011;22232;50.914;13.858;2023-04-24T01:45:25;3.92;;;2.72;;
36189;SDS011;22232;50.914;13.858;2023-04-24T01:47:53;3.08;;;2.78;;
36189;SDS011;22232;50.914;13.858;2023-04-24T01:50:20;3.22;;;2.63;;
36189;SDS011;22232;50.914;13.858;2023-04-24T01:52:48;3.33;;;2.50;;
36189;SDS011;22232;50.914;13.858;2023-04-24T01:55:15;2.88;;;2.53;;
36189;SDS011;22232;50.914;13.858;2023-04-24T01:57:44;11.45;;;8.35;;
36189;SDS011;22232;50.914;13.858;2023-04-24T02:00:12;14.75;;;9.68;;
36189;SDS011;22232;50.914;13.858;2023-04-24T02:02:40;16.50;;;10.57;;
36189;SDS011;22232;50.914;13.858;2023-04-24T02:05:11;15.07;;;10.68;;
36189;SDS011;22232;50.914;13.858;2023-04-24T02:07:39;18.92;;;11.30;;
36189;SDS011;22232;50.914;13.858;2023-04-24T02:10:08;16.35;;;10.63;;
36189;SDS011;22232;50.914;13.858;2023-04-24T02:12:41;16.92;;;10.88;;
36189;SDS011;22232;50.914;13.858;2023-04-24T02:15:09;18.10;;;13.38;;
36189;SDS011;22232;50.914;13.858;2023-04-24T02:17:37;19.48;;;13.60;;
36189;SDS011;22232;50.914;13.858;2023-04-24T02:20:06;23.05;;;14.30;;
36189;SDS011;22232;50.914;13.858;2023-04-24T02:22:34;18.35;;;13.70;;
36189;SDS011;22232;50.914;13.858;2023-04-24T02:25:02;21.02;;;14.30;;
36189;SDS011;22232;50.914;13.858;2023-04-24T02:27:29;20.70;;;14.40;;
36189;SDS011;22232;50.914;13.858;2023-04-24T02:29:57;20.63;;;14.13;;
36189;SDS011;22232;50.914;13.858;2023-04-24T02:32:24;18.48;;;13.75;;
36189;SDS011;22232;50.914;13.858;2023-04-24T02:34:52;17.85;;;14.35;;
36189;SDS011;22232;50.914;13.858;2023-04-24T02:37:20;19.15;;;14.00;;
36189;SDS011;22232;50.914;13.858;2023-04-24T02:39:47;20.38;;;13.73;;
36189;SDS011;22232;50.914;13.858;2023-04-24T02:42:15;18.98;;;14.32;;
36189;SDS011;22232;50.914;13.858;2023-04-24T02:44:42;20.65;;;15.30;;
36189;SDS011;22232;50.914;13.858;2023-04-24T02:47:10;17.75;;;13.18;;
36189;SDS011;22232;50.914;13.858;2023-04-24T02:49:37;16.35;;;12.73;;
36189;SDS011;22232;50.914;13.858;2023-04-24T02:52:05;15.52;;;12.82;;
36189;SDS011;22232;50.914;13.858;2023-04-24T02:54:33;17.33;;;13.07;;
36189;SDS011;22232;50.914;13.858;2023-04-24T02:57:00;18.02;;;13.32;;
36189;SDS011;22232;50.914;13.858;2023-04-24T02:59:29;19.63;;;14.48;;
36189;SDS011;22232;50.914;13.858;2023-04-24T03:01:56;16.10;;;12.80;;
36189;SDS011;22232;50.914;13.858;2023-04-24T03:04:24;16.55;;;12.35;;
36189;SDS011;22232;50.914;13.858;2023-04-24T03:06:52;17.98;;;13.45;;
36189;SDS011;22232;50.914;13.858;2023-04-24T03:09:21;15.55;;;11.90;;
36189;SDS011;22232;50.914;13.858;2023-04-24T03:11:49;17.20;;;12.73;;
36189;SDS011;22232;50.914;13.858;2023-04-24T03:14:17;21.60;;;15.50;;
36189;SDS011;22232;50.914;13.858;2023-04-24T03:16:44;17.40;;;13.30;;
36189;SDS011;22232;50.914;13.858;2023-04-24T03:19:12;16.10;;;12.57;;
36189;SDS011;22232;50.914;13.858;2023-04-24T03:22:03;11.93;;;8.85;;
36189;SDS011;22232;50.914;13.858;2023-04-24T03:24:31;8.90;;;7.00;;
36189;SDS011;22232;50.914;13.858;2023-04-24T03:26:59;6.55;;;5.30;;
36189;SDS011;22232;50.914;13.858;2023-04-24T03:29:53;6.40;;;5.13;;
36189;SDS011;22232;50.914;13.858;2023-04-24T03:32:29;6.47;;;4.72;;
36189;SDS011;22232;50.914;13.858;2023-04-24T03:34:57;4.22;;;3.70;;
36189;SDS011;22232;50.914;13.858;2023-04-24T03:37:25;5.05;;;4.13;;
36189;SDS011;22232;50.914;13.858;2023-04-24T03:40:05;6.25;;;4.10;;
36189;SDS011;22232;50.914;13.858;2023-04-24T03:42:35;4.10;;;3.30;;
36189;SDS011;22232;50.914;13.858;2023-04-24T03:45:06;5.22;;;3.38;;
36189;SDS011;22232;50.914;13.858;2023-04-24T03:47:36;4.00;;;3.40;;
36189;SDS011;22232;50.914;13.858;2023-04-24T03:50:05;6.00;;;2.65;;
36189;SDS011;22232;50.914;13.858;2023-04-24T03:52:33;4.38;;;1.83;;
36189;SDS011;22232;50.914;13.858;2023-04-24T03:55:02;5.35;;;1.40;;
36189;SDS011;22232;50.914;13.858;2023-04-24T03:57:35;1.95;;;1.35;;
36189;SDS011;22232;50.914;13.858;2023-04-24T04:00:12;1.10;;;1.00;;
36189;SDS011;22232;50.914;13.858;2023-04-24T04:02:48;1.00;;;0.90;;
36189;SDS011;22232;50.914;13.858;2023-04-24T04:05:15;2.42;;;1.35;;
36189;SDS011;22232;50.914;13.858;2023-04-24T04:07:43;1.45;;;0.93;;
36189;SDS011;22232;50.914;13.858;2023-04-24T04:10:11;1.40;;;1.25;;
36189;SDS011;22232;50.914;13.858;2023-04-24T04:12:39;1.92;;;0.95;;
36189;SDS011;22232;50.914;13.858;2023-04-24T04:15:06;1.65;;;0.93;;
36189;SDS011;22232;50.914;13.858;2023-04-24T04:17:35;1.35;;;0.90;;
36189;SDS011;22232;50.914;13.858;2023-04-24T04:20:05;1.95;;;0.98;;
36189;SDS011;22232;50.914;13.858;2023-04-24T04:22:38;3.38;;;1.20;;
36189;SDS011;22232;50.914;13.858;2023-04-24T04:27:41;0.93;;;0.70;;
36189;SDS011;22232;50.914;13.858;2023-04-24T04:30:11;4.68;;;0.90;;
36189;SDS011;22232;50.914;13.858;2023-04-24T04:32:52;1.30;;;0.80;;
36189;SDS011;22232;50.914;13.858;2023-04-24T04:35:21;2.22;;;0.88;;
36189;SDS011;22232;50.914;13.858;2023-04-24T04:37:51;2.15;;;0.82;;
36189;SDS011;22232;50.914;13.858;2023-04-24T04:40:37;1.85;;;1.02;;
36189;SDS011;22232;50.914;13.858;2023-04-24T04:43:06;1.50;;;0.90;;
36189;SDS011;22232;50.914;13.858;2023-04-24T04:45:41;1.85;;;0.80;;
36189;SDS011;22232;50.914;13.858;2023-04-24T04:48:22;0.70;;;0.70;;
36189;SDS011;22232;50.914;13.858;2023-04-24T04:50:50;1.50;;;0.82;;
36189;SDS011;22232;50.914;13.858;2023-04-24T04:53:20;3.45;;;0.93;;
36189;SDS011;22232;50.914;13.858;2023-04-24T04:55:47;1.98;;;0.70;;
36189;SDS011;22232;50.914;13.858;2023-04-24T04:58:16;0.93;;;0.80;;
36189;SDS011;22232;50.914;13.858;2023-04-24T05:00:45;1.23;;;0.80;;
36189;SDS011;22232;50.914;13.858;2023-04-24T05:03:26;1.15;;;0.80;;
36189;SDS011;22232;50.914;13.858;2023-04-24T05:05:59;5.25;;;1.02;;
36189;SDS011;22232;50.914;13.858;2023-04-24T05:08:31;0.68;;;0.68;;
36189;SDS011;22232;50.914;13.858;2023-04-24T05:10:59;2.15;;;0.65;;
36189;SDS011;22232;50.914;13.858;2023-04-24T05:13:28;2.78;;;0.80;;
36189;SDS011;22232;50.914;13.858;2023-04-24T05:16:18;1.58;;;0.80;;
36189;SDS011;22232;50.914;13.858;2023-04-24T05:18:47;3.40;;;0.88;;
36189;SDS011;22232;50.914;13.858;2023-04-24T05:21:18;1.42;;;0.80;;
36189;SDS011;22232;50.914;13.858;2023-04-24T05:23:49;1.13;;;0.60;;
36189;SDS011;22232;50.914;13.858;2023-04-24T05:26:26;1.67;;;0.80;;
36189;SDS011;22232;50.914;13.858;2023-04-24T05:28:55;0.88;;;0.85;;
36189;SDS011;22232;50.914;13.858;2023-04-24T05:31:22;23.60;;;12.93;;
36189;SDS011;22232;50.914;13.858;2023-04-24T05:33:50;20.02;;;11.77;;
36189;SDS011;22232;50.914;13.858;2023-04-24T05:36:18;42.97;;;22.42;;
36189;SDS011;22232;50.914;13.858;2023-04-24T05:38:46;34.25;;;19.95;;
36189;SDS011;22232;50.914;13.858;2023-04-24T05:41:14;8.65;;;4.57;;
36189;SDS011;22232;50.914;13.858;2023-04-24T05:43:42;4.03;;;2.63;;
36189;SDS011;22232;50.914;13.858;2023-04-24T05:46:09;1.65;;;1.55;;
36189;SDS011;22232;50.914;13.858;2023-04-24T05:48:39;1.77;;;0.98;;
36189;SDS011;22232;50.914;13.858;2023-04-24T05:51:06;0.98;;;0.88;;
36189;SDS011;22232;50.914;13.858;2023-04-24T05:53:34;1.58;;;0.73;;
36189;SDS011;22232;50.914;13.858;2023-04-24T05:56:01;2.15;;;0.93;;
36189;SDS011;22232;50.914;13.858;2023-04-24T05:58:30;1.00;;;0.60;;
36189;SDS011;22232;50.914;13.858;2023-04-24T06:01:00;0.60;;;0.60;;
36189;SDS011;22232;50.914;13.858;2023-04-24T06:03:28;1.42;;;0.70;;
36189;SDS011;22232;50.914;13.858;2023-04-24T06:05:56;0.60;;;0.60;;
36189;SDS011;22232;50.914;13.858;2023-04-24T06:08:24;1.27;;;0.60;;
36189;SDS011;22232;50.914;13.858;2023-04-24T06:10:52;0.90;;;0.50;;
36189;SDS011;22232;50.914;13.858;2023-04-24T06:13:21;1.40;;;0.85;;
36189;SDS011;22232;50.914;13.858;2023-04-24T06:16:18;2.65;;;0.60;;
36189;SDS011;22232;50.914;13.858;2023-04-24T06:18:52;1.65;;;0.70;;
36189;SDS011;22232;50.914;13.858;2023-04-24T06:21:20;1.67;;;0.75;;
36189;SDS011;22232;50.914;13.858;2023-04-24T06:23:48;2.03;;;0.80;;
36189;SDS011;22232;50.914;13.858;2023-04-24T06:26:16;1.65;;;1.38;;
36189;SDS011;22232;50.914;13.858;2023-04-24T06:28:44;1.58;;;0.90;;
36189;SDS011;22232;50.914;13.858;2023-04-24T06:31:11;0.65;;;0.65;;
36189;SDS011;22232;50.914;13.858;2023-04-24T06:33:39;1.75;;;0.70;;
36189;SDS011;22232;50.914;13.858;2023-04-24T06:36:09;1.83;;;0.60;;
36189;SDS011;22232;50.914;13.858;2023-04-24T06:38:36;2.80;;;0.90;;
36189;SDS011;22232;50.914;13.858;2023-04-24T06:41:04;2.20;;;0.45;;
36189;SDS011;22232;50.914;13.858;2023-04-24T06:43:32;0.93;;;0.50;;
36189;SDS011;22232;50.914;13.858;2023-04-24T06:46:00;8.90;;;3.13;;
36189;SDS011;22232;50.914;13.858;2023-04-24T06:48:27;3.85;;;1.70;;
36189;SDS011;22232;50.914;13.858;2023-04-24T06:50:55;1.85;;;1.20;;
36189;SDS011;22232;50.914;13.858;2023-04-24T06:53:22;2.40;;;1.23;;
36189;SDS011;22232;50.914;13.858;2023-04-24T06:55:50;1.80;;;1.02;;
36189;SDS011;22232;50.914;13.858;2023-04-24T06:58:17;2.15;;;0.70;;
36189;SDS011;22232;50.914;13.858;2023-04-24T07:00:45;1.95;;;0.80;;
36189;SDS011;22232;50.914;13.858;2023-04-24T07:03:12;1.85;;;0.57;;
36189;SDS011;22232;50.914;13.858;2023-04-24T07:05:40;1.33;;;1.10;;
36189;SDS011;22232;50.914;13.858;2023-04-24T07:08:08;3.08;;;1.08;;
36189;SDS011;22232;50.914;13.858;2023-04-24T07:10:38;2.90;;;1.00;;
36189;SDS011;22232;50.914;13.858;2023-04-24T07:13:06;1.17;;;0.70;;
36189;SDS011;22232;50.914;13.858;2023-04-24T07:15:34;1.85;;;0.75;;
36189;SDS011;22232;50.914;13.858;2023-04-24T07:18:01;1.30;;;0.90;;
36189;SDS011;22232;50.914;13.858;2023-04-24T07:20:32;0.88;;;0.70;;
36189;SDS011;22232;50.914;13.858;2023-04-24T07:23:00;1.25;;;0.60;;
36189;SDS011;22232;50.914;13.858;2023-04-24T07:25:28;2.25;;;0.63;;
36189;SDS011;22232;50.914;13.858;2023-04-24T07:27:55;2.22;;;1.00;;
36189;SDS011;22232;50.914;13.858;2023-04-24T07:30:23;1.83;;;1.50;;
36189;SDS011;22232;50.914;13.858;2023-04-24T07:32:50;0.93;;;0.70;;
36189;SDS011;22232;50.914;13.858;2023-04-24T07:35:18;0.93;;;0.50;;
36189;SDS011;22232;50.914;13.858;2023-04-24T07:37:47;1.90;;;0.95;;
36189;SDS011;22232;50.914;13.858;2023-04-24T07:40:16;1.13;;;0.80;;
36189;SDS011;22232;50.914;13.858;2023-04-24T07:42:43;0.68;;;0.68;;
36189;SDS011;22232;50.914;13.858;2023-04-24T07:45:11;3.17;;;1.17;;
36189;SDS011;22232;50.914;13.858;2023-04-24T07:47:39;1.10;;;0.85;;
36189;SDS011;22232;50.914;13.858;2023-04-24T07:50:07;1.08;;;1.00;;
36189;SDS011;22232;50.914;13.858;2023-04-24T07:52:34;0.82;;;0.75;;
36189;SDS011;22232;50.914;13.858;2023-04-24T07:55:02;0.93;;;0.60;;
36189;SDS011;22232;50.914;13.858;2023-04-24T07:57:30;5.65;;;0.70;;
36189;SDS011;22232;50.914;13.858;2023-04-24T07:59:57;2.38;;;0.65;;
36189;SDS011;22232;50.914;13.858;2023-04-24T08:02:25;1.98;;;0.73;;
36189;SDS011;22232;50.914;13.858;2023-04-24T08:04:54;1.90;;;0.80;;
36189;SDS011;22232;50.914;13.858;2023-04-24T08:07:24;1.30;;;0.80;;
36189;SDS011;22232;50.914;13.858;2023-04-24T08:09:51;0.73;;;0.60;;
36189;SDS011;22232;50.914;13.858;2023-04-24T08:12:19;1.45;;;0.70;;
36189;SDS011;22232;50.914;13.858;2023-04-24T08:14:46;1.50;;;0.60;;
36189;SDS011;22232;50.914;13.858;2023-04-24T08:17:14;1.48;;;0.50;;
36189;SDS011;22232;50.914;13.858;2023-04-24T08:19:41;1.17;;;0.50;;
36189;SDS011;22232;50.914;13.858;2023-04-24T08:22:14;2.20;;;0.90;;
36189;SDS011;22232;50.914;13.858;2023-04-24T08:24:42;1.17;;;0.40;;
36189;SDS011;22232;50.914;13.858;2023-04-24T08:27:10;0.75;;;0.40;;
36189;SDS011;22232;50.914;13.858;2023-04-24T08:29:38;1.45;;;0.50;;
36189;SDS011;22232;50.914;13.858;2023-04-24T08:32:05;0.93;;;0.65;;
36189;SDS011;22232;50.914;13.858;2023-04-24T08:34:33;0.63;;;0.40;;
36189;SDS011;22232;50.914;13.858;2023-04-24T08:37:02;0.82;;;0.60;;
36189;SDS011;22232;50.914;13.858;2023-04-24T08:39:30;2.17;;;0.57;;
36189;SDS011;22232;50.914;13.858;2023-04-24T08:41:58;1.83;;;0.70;;
36189;SDS011;22232;50.914;13.858;2023-04-24T08:44:32;2.15;;;0.40;;
36189;SDS011;22232;50.914;13.858;2023-04-24T08:47:01;1.02;;;0.47;;
36189;SDS011;22232;50.914;13.858;2023-04-24T08:49:29;0.88;;;0.60;;
36189;SDS011;22232;50.914;13.858;2023-04-24T08:51:57;0.70;;;0.32;;
36189;SDS011;22232;50.914;13.858;2023-04-24T08:54:26;0.30;;;0.30;;
36189;SDS011;22232;50.914;13.858;2023-04-24T08:56:58;1.17;;;0.60;;
36189;SDS011;22232;50.914;13.858;2023-04-24T08:59:33;1.25;;;0.60;;
36189;SDS011;22232;50.914;13.858;2023-04-24T09:02:02;0.57;;;0.40;;
36189;SDS011;22232;50.914;13.858;2023-04-24T09:04:31;0.80;;;0.50;;
36189;SDS011;22232;50.914;13.858;2023-04-24T09:07:01;1.05;;;0.50;;
36189;SDS011;22232;50.914;13.858;2023-04-24T09:09:30;0.85;;;0.50;;
36189;SDS011;22232;50.914;13.858;2023-04-24T09:11:59;1.25;;;0.57;;
36189;SDS011;22232;50.914;13.858;2023-04-24T09:14:27;1.50;;;0.40;;
36189;SDS011;22232;50.914;13.858;2023-04-24T09:16:58;1.90;;;0.60;;
36189;SDS011;22232;50.914;13.858;2023-04-24T09:19:25;1.67;;;0.60;;
36189;SDS011;22232;50.914;13.858;2023-04-24T09:21:53;1.13;;;0.73;;
36189;SDS011;22232;50.914;13.858;2023-04-24T09:24:21;2.00;;;0.70;;
36189;SDS011;22232;50.914;13.858;2023-04-24T09:26:58;2.38;;;0.75;;
36189;SDS011;22232;50.914;13.858;2023-04-24T09:29:26;3.20;;;0.60;;
36189;SDS011;22232;50.914;13.858;2023-04-24T09:31:54;0.57;;;0.47;;
36189;SDS011;22232;50.914;13.858;2023-04-24T09:34:22;1.52;;;0.60;;
36189;SDS011;22232;50.914;13.858;2023-04-24T09:36:51;4.65;;;1.23;;
36189;SDS011;22232;50.914;13.858;2023-04-24T09:39:19;1.02;;;0.70;;
36189;SDS011;22232;50.914;13.858;2023-04-24T09:41:56;2.15;;;0.80;;
36189;SDS011;22232;50.914;13.858;2023-04-24T09:44:26;1.65;;;0.95;;
36189;SDS011;22232;50.914;13.858;2023-04-24T09:46:55;0.95;;;0.70;;
36189;SDS011;22232;50.914;13.858;2023-04-24T09:49:28;3.10;;;0.80;;
36189;SDS011;22232;50.914;13.858;2023-04-24T09:52:04;1.48;;;0.63;;
36189;SDS011;22232;50.914;13.858;2023-04-24T09:54:39;1.30;;;0.70;;
36189;SDS011;22232;50.914;13.858;2023-04-24T09:57:07;1.40;;;0.50;;
36189;SDS011;22232;50.914;13.858;2023-04-24T09:59:38;0.77;;;0.60;;
36189;SDS011;22232;50.914;13.858;2023-04-24T10:02:17;0.77;;;0.40;;
36189;SDS011;22232;50.914;13.858;2023-04-24T10:04:56;0.50;;;0.50;;
36189;SDS011;22232;50.914;13.858;2023-04-24T10:07:27;1.48;;;0.47;;
36189;SDS011;22232;50.914;13.858;2023-04-24T10:09:54;0.95;;;0.60;;
36189;SDS011;22232;50.914;13.858;2023-04-24T10:12:22;2.13;;;0.57;;
36189;SDS011;22232;50.914;13.858;2023-04-24T10:14:52;0.82;;;0.40;;
36189;SDS011;22232;50.914;13.858;2023-04-24T10:17:20;0.35;;;0.30;;
36189;SDS011;22232;50.914;13.858;2023-04-24T10:19:48;2.42;;;0.40;;
36189;SDS011;22232;50.914;13.858;2023-04-24T10:22:16;0.68;;;0.40;;
36189;SDS011;22232;50.914;13.858;2023-04-24T10:24:44;1.55;;;0.50;;
36189;SDS011;22232;50.914;13.858;2023-04-24T10:27:14;1.10;;;0.47;;
36189;SDS011;22232;50.914;13.858;2023-04-24T10:29:42;1.05;;;0.50;;
36189;SDS011;22232;50.914;13.858;2023-04-24T10:32:11;0.82;;;0.43;;
36189;SDS011;22232;50.914;13.858;2023-04-24T10:34:39;0.80;;;0.30;;
36189;SDS011;22232;50.914;13.858;2023-04-24T10:37:06;1.98;;;0.50;;
36189;SDS011;22232;50.914;13.858;2023-04-24T10:39:34;1.23;;;0.52;;
36189;SDS011;22232;50.914;13.858;2023-04-24T10:42:04;0.75;;;0.40;;
36189;SDS011;22232;50.914;13.858;2023-04-24T10:44:42;0.43;;;0.40;;
36189;SDS011;22232;50.914;13.858;2023-04-24T10:47:13;0.82;;;0.50;;
36189;SDS011;22232;50.914;13.858;2023-04-24T10:49:41;2.78;;;0.70;;
36189;SDS011;22232;50.914;13.858;2023-04-24T10:52:09;0.47;;;0.40;;
36189;SDS011;22232;50.914;13.858;2023-04-24T10:54:42;0.73;;;0.32;;
36189;SDS011;22232;50.914;13.858;2023-04-24T10:59:45;0.73;;;0.52;;
36189;SDS011;22232;50.914;13.858;2023-04-24T11:02:14;2.17;;;0.68;;
36189;SDS011;22232;50.914;13.858;2023-04-24T11:04:43;3.65;;;1.73;;
36189;SDS011;22232;50.914;13.858;2023-04-24T11:07:12;1.55;;;0.73;;
36189;SDS011;22232;50.914;13.858;2023-04-24T11:09:40;0.70;;;0.40;;
36189;SDS011;22232;50.914;13.858;2023-04-24T11:12:10;0.70;;;0.50;;
36189;SDS011;22232;50.914;13.858;2023-04-24T11:14:59;2.05;;;0.50;;
36189;SDS011;22232;50.914;13.858;2023-04-24T11:17:35;1.65;;;0.70;;
36189;SDS011;22232;50.914;13.858;2023-04-24T11:20:06;1.85;;;0.50;;
36189;SDS011;22232;50.914;13.858;2023-04-24T11:22:53;0.90;;;0.43;;
36189;SDS011;22232;50.914;13.858;2023-04-24T11:25:22;1.98;;;0.77;;
36189;SDS011;22232;50.914;13.858;2023-04-24T11:27:50;2.20;;;0.93;;
36189;SDS011;22232;50.914;13.858;2023-04-24T11:30:31;1.67;;;0.57;;
36189;SDS011;22232;50.914;13.858;2023-04-24T11:33:04;1.15;;;0.40;;
36189;SDS011;22232;50.914;13.858;2023-04-24T11:35:39;0.80;;;0.55;;
36189;SDS011;22232;50.914;13.858;2023-04-24T11:38:08;2.17;;;0.73;;
36189;SDS011;22232;50.914;13.858;2023-04-24T11:40:40;0.63;;;0.60;;
36189;SDS011;22232;50.914;13.858;2023-04-24T11:43:09;0.68;;;0.40;;
36189;SDS011;22232;50.914;13.858;2023-04-24T11:45:38;1.58;;;0.85;;
36189;SDS011;22232;50.914;13.858;2023-04-24T11:48:18;2.05;;;0.80;;
36189;SDS011;22232;50.914;13.858;2023-04-24T11:50:49;1.73;;;0.70;;
36189;SDS011;22232;50.914;13.858;2023-04-24T11:53:19;2.78;;;0.60;;
36189;SDS011;22232;50.914;13.858;2023-04-24T11:55:48;1.17;;;0.60;;
36189;SDS011;22232;50.914;13.858;2023-04-24T11:58:16;0.90;;;0.63;;
36189;SDS011;22232;50.914;13.858;2023-04-24T12:00:55;1.90;;;0.60;;
36189;SDS011;22232;50.914;13.858;2023-04-24T12:03:24;1.08;;;0.43;;
36189;SDS011;22232;50.914;13.858;2023-04-24T12:05:53;1.65;;;0.68;;
36189;SDS011;22232;50.914;13.858;2023-04-24T12:08:32;0.93;;;0.70;;
36189;SDS011;22232;50.914;13.858;2023-04-24T12:11:04;2.08;;;1.20;;
36189;SDS011;22232;50.914;13.858;2023-04-24T12:13:34;2.83;;;0.60;;
36189;SDS011;22232;50.914;13.858;2023-04-24T12:16:03;1.88;;;0.70;;
36189;SDS011;22232;50.914;13.858;2023-04-24T12:18:31;0.80;;;0.80;;
36189;SDS011;22232;50.914;13.858;2023-04-24T12:21:15;0.75;;;0.55;;
36189;SDS011;22232;50.914;13.858;2023-04-24T12:23:47;2.45;;;1.27;;
36189;SDS011;22232;50.914;13.858;2023-04-24T12:26:18;1.42;;;0.95;;
36189;SDS011;22232;50.914;13.858;2023-04-24T12:28:47;3.70;;;0.93;;
36189;SDS011;22232;50.914;13.858;2023-04-24T12:31:16;2.15;;;0.75;;
36189;SDS011;22232;50.914;13.858;2023-04-24T12:33:44;1.20;;;0.70;;
36189;SDS011;22232;50.914;13.858;2023-04-24T12:36:12;1.23;;;0.77;;
36189;SDS011;22232;50.914;13.858;2023-04-24T12:38:41;2.10;;;0.50;;
36189;SDS011;22232;50.914;13.858;2023-04-24T12:41:12;0.43;;;0.43;;
36189;SDS011;22232;50.914;13.858;2023-04-24T12:43:53;0.93;;;0.70;;
36189;SDS011;22232;50.914;13.858;2023-04-24T12:46:22;1.55;;;0.70;;
36189;SDS011;22232;50.914;13.858;2023-04-24T12:48:50;2.15;;;0.50;;
36189;SDS011;22232;50.914;13.858;2023-04-24T12:51:17;2.70;;;0.93;;
36189;SDS011;22232;50.914;13.858;2023-04-24T12:53:45;1.20;;;0.80;;
36189;SDS011;22232;50.914;13.858;2023-04-24T12:56:12;4.10;;;0.73;;
36189;SDS011;22232;50.914;13.858;2023-04-24T12:58:40;1.00;;;0.70;;
36189;SDS011;22232;50.914;13.858;2023-04-24T13:01:07;1.95;;;0.80;;
36189;SDS011;22232;50.914;13.858;2023-04-24T13:03:35;4.50;;;0.80;;
36189;SDS011;22232;50.914;13.858;2023-04-24T13:06:03;1.35;;;0.80;;
36189;SDS011;22232;50.914;13.858;2023-04-24T13:08:30;0.60;;;0.60;;
36189;SDS011;22232;50.914;13.858;2023-04-24T13:10:58;2.72;;;1.10;;
36189;SDS011;22232;50.914;13.858;2023-04-24T13:13:25;1.45;;;1.10;;
36189;SDS011;22232;50.914;13.858;2023-04-24T13:15:53;1.00;;;0.90;;
36189;SDS011;22232;50.914;13.858;2023-04-24T13:18:21;0.80;;;0.60;;
36189;SDS011;22232;50.914;13.858;2023-04-24T13:20:49;4.43;;;1.20;;
36189;SDS011;22232;50.914;13.858;2023-04-24T13:23:17;1.48;;;0.93;;
36189;SDS011;22232;50.914;13.858;2023-04-24T13:25:44;2.28;;;1.00;;
36189;SDS011;22232;50.914;13.858;2023-04-24T13:28:12;2.95;;;0.82;;
36189;SDS011;22232;50.914;13.858;2023-04-24T13:30:39;2.13;;;0.80;;
36189;SDS011;22232;50.914;13.858;2023-04-24T13:33:07;1.77;;;0.90;;
36189;SDS011;22232;50.914;13.858;2023-04-24T13:35:34;2.05;;;1.10;;
36189;SDS011;22232;50.914;13.858;2023-04-24T13:38:02;3.25;;;1.20;;
36189;SDS011;22232;50.914;13.858;2023-04-24T13:40:33;2.75;;;0.95;;
36189;SDS011;22232;50.914;13.858;2023-04-24T13:43:00;1.02;;;0.90;;
36189;SDS011;22232;50.914;13.858;2023-04-24T13:45:28;1.02;;;0.80;;
36189;SDS011;22232;50.914;13.858;2023-04-24T13:47:56;0.68;;;0.68;;
36189;SDS011;22232;50.914;13.858;2023-04-24T13:50:24;3.67;;;0.70;;
36189;SDS011;22232;50.914;13.858;2023-04-24T13:52:52;3.30;;;0.88;;
36189;SDS011;22232;50.914;13.858;2023-04-24T13:55:21;0.80;;;0.80;;
36189;SDS011;22232;50.914;13.858;2023-04-24T13:57:48;1.20;;;1.10;;
36189;SDS011;22232;50.914;13.858;2023-04-24T14:00:16;1.40;;;0.80;;
36189;SDS011;22232;50.914;13.858;2023-04-24T14:02:44;3.33;;;1.00;;
36189;SDS011;22232;50.914;13.858;2023-04-24T14:05:13;3.22;;;1.10;;
36189;SDS011;22232;50.914;13.858;2023-04-24T14:07:42;1.27;;;1.00;;
36189;SDS011;22232;50.914;13.858;2023-04-24T14:10:09;1.48;;;1.23;;
36189;SDS011;22232;50.914;13.858;2023-04-24T14:12:37;1.50;;;1.02;;
36189;SDS011;22232;50.914;13.858;2023-04-24T14:15:05;2.40;;;1.02;;
36189;SDS011;22232;50.914;13.858;2023-04-24T14:17:33;4.00;;;0.88;;
36189;SDS011;22232;50.914;13.858;2023-04-24T14:20:01;0.88;;;0.88;;
36189;SDS011;22232;50.914;13.858;2023-04-24T14:22:28;2.58;;;1.30;;
36189;SDS011;22232;50.914;13.858;2023-04-24T14:24:56;6.28;;;1.20;;
36189;SDS011;22232;50.914;13.858;2023-04-24T14:27:25;1.48;;;0.90;;
36189;SDS011;22232;50.914;13.858;2023-04-24T14:29:53;2.70;;;0.90;;
36189;SDS011;22232;50.914;13.858;2023-04-24T14:32:21;0.98;;;0.90;;
36189;SDS011;22232;50.914;13.858;2023-04-24T14:34:48;3.20;;;0.90;;
36189;SDS011;22232;50.914;13.858;2023-04-24T14:37:16;1.35;;;0.82;;
36189;SDS011;22232;50.914;13.858;2023-04-24T14:39:44;0.95;;;0.93;;
36189;SDS011;22232;50.914;13.858;2023-04-24T14:42:26;4.95;;;1.23;;
36189;SDS011;22232;50.914;13.858;2023-04-24T14:44:55;1.08;;;1.00;;
36189;SDS011;22232;50.914;13.858;2023-04-24T14:47:23;1.55;;;1.00;;
36189;SDS011;22232;50.914;13.858;2023-04-24T14:49:50;1.20;;;1.00;;